TimeCDT,TemperatureF,Dew PointF,Humidity,Sea Level PressureIn,VisibilityMPH,Wind Direction,Wind SpeedMPH,Gust SpeedMPH,PrecipitationIn,Events,Conditions,WindDirDegrees,DateUTC
12:15 AM,40.1,39.7,99,30.16,7.0,Calm,Calm,-,N/A,,Clear,0,2012-10-09 05:15:00
12:35 AM,39.9,39.7,99,30.16,7.0,Calm,Calm,-,N/A,,Clear,0,2012-10-09 05:35:00
12:55 AM,39.6,39.4,99,30.15,10.0,Calm,Calm,-,N/A,,Clear,0,2012-10-09 05:55:00
1:15 AM,39.6,39.4,99,30.15,10.0,Calm,Calm,-,N/A,,Clear,0,2012-10-09 06:15:00
1:35 AM,39.2,39.0,99,30.14,10.0,NNE,3.5,-,N/A,,Clear,30,2012-10-09 06:35:00
1:55 AM,39.0,38.8,99,30.15,10.0,Calm,Calm,-,N/A,,Clear,0,2012-10-09 06:55:00
2:15 AM,39.0,38.7,99,30.14,10.0,Calm,Calm,-,N/A,,Clear,0,2012-10-09 07:15:00
2:35 AM,38.7,38.5,99,30.14,7.0,Calm,Calm,-,N/A,,Clear,0,2012-10-09 07:35:00
3:15 AM,38.1,37.8,99,30.15,7.0,Calm,Calm,-,N/A,,Clear,0,2012-10-09 08:15:00
3:35 AM,37.8,37.6,99,30.15,10.0,Calm,Calm,-,N/A,,Clear,0,2012-10-09 08:35:00
3:55 AM,37.6,37.4,99,30.15,7.0,Calm,Calm,-,N/A,,Clear,0,2012-10-09 08:55:00
4:15 AM,37.4,37.4,100,30.15,7.0,Calm,Calm,-,N/A,,Clear,0,2012-10-09 09:15:00
4:35 AM,37.4,37.2,99,30.15,7.0,Calm,Calm,-,N/A,,Clear,0,2012-10-09 09:35:00
4:55 AM,37.4,37.0,99,30.15,10.0,Calm,Calm,-,N/A,,Clear,0,2012-10-09 09:55:00
5:15 AM,37.2,36.9,99,30.16,10.0,Calm,Calm,-,N/A,,Clear,0,2012-10-09 10:15:00
5:35 AM,36.9,36.7,99,30.16,10.0,Calm,Calm,-,N/A,,Clear,0,2012-10-09 10:35:00
6:15 AM,36.9,36.7,99,30.15,0.5,Calm,Calm,-,N/A,Fog,Fog,0,2012-10-09 11:15:00
6:35 AM,36.9,36.7,99,30.16,0.5,Calm,Calm,-,N/A,Fog,Fog,0,2012-10-09 11:35:00
6:55 AM,36.9,36.7,99,30.16,0.8,Calm,Calm,-,N/A,,Mostly Cloudy,0,2012-10-09 11:55:00
7:15 AM,37.4,37.4,100,30.16,1.8,Calm,Calm,-,N/A,,Scattered Clouds,0,2012-10-09 12:15:00
7:35 AM,38.1,38.1,100,30.17,5.0,Calm,Calm,-,N/A,,Scattered Clouds,0,2012-10-09 12:35:00
7:55 AM,39.4,39.2,99,30.17,7.0,Calm,Calm,-,N/A,,Clear,0,2012-10-09 12:55:00
8:15 AM,41.4,40.8,98,30.17,7.0,Calm,Calm,-,N/A,,Clear,0,2012-10-09 13:15:00
8:35 AM,44.6,43.5,96,30.18,10.0,Calm,Calm,-,N/A,,Clear,0,2012-10-09 13:35:00
8:55 AM,48.7,46.8,93,30.17,10.0,Calm,Calm,-,N/A,,Clear,0,2012-10-09 13:55:00
9:15 AM,50.9,47.3,87,30.17,10.0,Calm,Calm,-,N/A,,Clear,0,2012-10-09 14:15:00
9:35 AM,52.2,46.6,81,30.18,10.0,Calm,Calm,-,N/A,,Scattered Clouds,0,2012-10-09 14:35:00
9:55 AM,53.8,46.2,76,30.18,10.0,Calm,Calm,-,N/A,,Mostly Cloudy,0,2012-10-09 14:55:00
10:15 AM,54.3,46.6,75,30.17,10.0,Calm,Calm,-,N/A,,Mostly Cloudy,0,2012-10-09 15:15:00
10:35 AM,55.6,45.1,68,30.17,10.0,NW,6.9,-,N/A,,Mostly Cloudy,310,2012-10-09 15:35:00
10:55 AM,55.0,44.1,67,30.17,10.0,NNW,3.5,-,N/A,,Scattered Clouds,330,2012-10-09 15:55:00
11:15 AM,56.7,44.6,64,30.16,10.0,Calm,Calm,-,N/A,,Clear,0,2012-10-09 16:15:00
11:35 AM,57.4,44.6,62,30.16,10.0,Calm,Calm,-,N/A,,Clear,0,2012-10-09 16:35:00
11:55 AM,57.4,45.0,63,30.16,10.0,Calm,Calm,-,N/A,,Scattered Clouds,0,2012-10-09 16:55:00
12:15 PM,57.9,45.1,62,30.15,10.0,West,3.5,-,N/A,,Scattered Clouds,260,2012-10-09 17:15:00
12:35 PM,60.1,45.3,58,30.14,10.0,South,3.5,-,N/A,,Scattered Clouds,190,2012-10-09 17:35:00
12:55 PM,60.8,45.9,58,30.13,10.0,Calm,Calm,-,N/A,,Scattered Clouds,0,2012-10-09 17:55:00
1:15 PM,61.5,46.2,57,30.12,10.0,WNW,3.5,-,N/A,,Clear,300,2012-10-09 18:15:00
1:35 PM,62.2,46.0,55,30.11,10.0,Calm,Calm,-,N/A,,Clear,0,2012-10-09 18:35:00
1:55 PM,63.1,45.9,53,30.11,10.0,SSE,3.5,-,N/A,,Clear,160,2012-10-09 18:55:00
2:15 PM,63.0,45.9,54,30.09,10.0,Calm,Calm,-,N/A,,Clear,0,2012-10-09 19:15:00
2:35 PM,63.9,46.0,52,30.09,10.0,Calm,Calm,-,N/A,,Clear,0,2012-10-09 19:35:00
2:55 PM,64.6,46.4,52,30.09,10.0,Calm,Calm,-,N/A,,Clear,0,2012-10-09 19:55:00
3:15 PM,65.3,46.6,51,30.08,10.0,SW,3.5,-,N/A,,Clear,220,2012-10-09 20:15:00
3:35 PM,66.2,47.3,51,30.08,10.0,SSE,5.8,-,N/A,,Clear,150,2012-10-09 20:35:00
3:55 PM,65.7,47.1,51,30.07,10.0,WSW,4.6,-,N/A,,Clear,240,2012-10-09 20:55:00
4:15 PM,65.8,47.3,51,30.07,10.0,South,4.6,-,N/A,,Clear,180,2012-10-09 21:15:00
4:35 PM,65.7,47.8,53,30.07,10.0,SSE,5.8,-,N/A,,Clear,160,2012-10-09 21:35:00
4:55 PM,65.3,47.5,52,30.07,10.0,SSW,4.6,-,N/A,,Clear,200,2012-10-09 21:55:00
5:15 PM,64.6,47.7,54,30.07,10.0,SW,3.5,-,N/A,,Clear,220,2012-10-09 22:15:00
5:55 PM,61.7,47.7,60,30.07,10.0,SSW,4.6,-,N/A,,Clear,210,2012-10-09 22:55:00
6:15 PM,59.4,47.7,65,30.07,10.0,Calm,Calm,-,N/A,,Clear,0,2012-10-09 23:15:00
6:35 PM,56.5,48.9,76,30.07,10.0,Calm,Calm,-,N/A,,Clear,0,2012-10-09 23:35:00
6:55 PM,53.4,48.9,85,30.07,10.0,Calm,Calm,-,N/A,,Clear,0,2012-10-09 23:55:00
7:15 PM,51.3,48.6,90,30.08,10.0,Calm,Calm,-,N/A,,Clear,0,2012-10-10 00:15:00
7:35 PM,50.0,48.4,94,30.08,10.0,Calm,Calm,-,N/A,,Clear,0,2012-10-10 00:35:00
7:55 PM,49.5,47.8,94,30.08,10.0,Calm,Calm,-,N/A,,Clear,0,2012-10-10 00:55:00
8:15 PM,48.7,47.7,96,30.08,10.0,Calm,Calm,-,N/A,,Clear,0,2012-10-10 01:15:00
8:35 PM,48.4,47.7,97,30.08,10.0,Calm,Calm,-,N/A,,Clear,0,2012-10-10 01:35:00
8:55 PM,48.0,47.1,97,30.08,10.0,Calm,Calm,-,N/A,,Clear,0,2012-10-10 01:55:00
9:15 PM,47.1,46.6,98,30.08,10.0,Calm,Calm,-,N/A,,Clear,0,2012-10-10 02:15:00
9:35 PM,46.9,46.2,97,30.08,10.0,Calm,Calm,-,N/A,,Clear,0,2012-10-10 02:35:00
9:55 PM,46.4,45.7,97,30.09,10.0,Calm,Calm,-,N/A,,Clear,0,2012-10-10 02:55:00
10:15 PM,46.0,45.3,97,30.09,10.0,Calm,Calm,-,N/A,,Clear,0,2012-10-10 03:15:00
10:35 PM,46.0,45.3,97,30.09,10.0,Calm,Calm,-,N/A,,Clear,0,2012-10-10 03:35:00
10:55 PM,45.9,45.1,97,30.08,10.0,Calm,Calm,-,N/A,,Clear,0,2012-10-10 03:55:00
11:15 PM,46.2,45.1,96,30.08,10.0,Calm,Calm,-,N/A,,Clear,0,2012-10-10 04:15:00
11:35 PM,45.9,44.8,96,30.09,10.0,Calm,Calm,-,N/A,,Clear,0,2012-10-10 04:35:00
11:55 PM,45.7,45.0,97,30.09,10.0,Calm,Calm,-,N/A,,Clear,0,2012-10-10 04:55:00